Time;durP1;ratioP1;P1;durP2;ratioP2;P2;SDS_P1;SDS_P2;PMS_P1;PMS_P2;Temp;Humidity;BMP_temperature;BMP_pressure;BME280_temperature;BME280_humidity;BME280_pressure;Samples;Min_cycle;Max_cycle;Signal;HPM_P1;HPM_P2
2021/06/07 00:00:42;;;;;;;39.73;36.43;;;;;;;;;;5036120;28;20454;-86
2021/06/07 00:03:09;;;;;;;42.33;38.17;;;;;;;;;;5035999;28;20407;-86
2021/06/07 00:05:37;;;;;;;39.93;36.43;;;;;;;;;;5035890;28;20424;-86
2021/06/07 00:08:04;;;;;;;40.70;37.30;;;;;;;;;;5036056;28;20415;-86
2021/06/07 00:10:31;;;;;;;38.40;35.40;;;;;;;;;;5035677;28;20458;-86
2021/06/07 00:12:59;;;;;;;40.67;37.37;;;;;;;;;;5034869;28;20415;-86
2021/06/07 00:15:27;;;;;;;37.87;34.47;;;;;;;;;;5035969;28;20469;-86
2021/06/07 00:17:54;;;;;;;39.47;36.17;;;;;;;;;;5035594;28;20453;-87
2021/06/07 00:20:24;;;;;;;39.97;36.30;;;;;;;;;;5035847;28;20407;-86
2021/06/07 00:22:52;;;;;;;38.67;35.67;;;;;;;;;;5035800;28;20415;-86
2021/06/07 00:25:19;;;;;;;39.77;36.57;;;;;;;;;;5034232;28;20447;-86
2021/06/07 00:27:46;;;;;;;39.73;36.50;;;;;;;;;;5035388;28;20417;-86
2021/06/07 00:30:13;;;;;;;39.93;36.40;;;;;;;;;;5034448;28;20968;-86
2021/06/07 00:32:40;;;;;;;41.23;37.83;;;;;;;;;;5035299;28;20436;-86
2021/06/07 00:35:08;;;;;;;41.20;37.97;;;;;;;;;;5035642;28;20412;-86
2021/06/07 00:37:35;;;;;;;40.07;36.77;;;;;;;;;;5034315;28;20448;-86
2021/06/07 00:40:04;;;;;;;37.47;34.60;;;;;;;;;;5035371;28;20479;-86
2021/06/07 00:42:31;;;;;;;39.37;36.03;;;;;;;;;;5035367;28;20481;-86
2021/06/07 00:44:58;;;;;;;38.57;35.47;;;;;;;;;;5035471;28;20423;-86
2021/06/07 00:47:25;;;;;;;38.43;35.10;;;;;;;;;;5035228;28;20896;-84
2021/06/07 00:49:51;;;;;;;39.40;36.30;;;;;;;;;;5035239;28;20403;-86
2021/06/07 00:52:19;;;;;;;39.37;36.17;;;;;;;;;;5034649;28;20506;-86
2021/06/07 00:54:45;;;;;;;38.47;35.17;;;;;;;;;;5035170;28;20417;-86
2021/06/07 00:57:14;;;;;;;39.43;36.20;;;;;;;;;;5034595;28;20440;-86
2021/06/07 00:59:41;;;;;;;38.23;34.97;;;;;;;;;;5035191;28;20449;-86
2021/06/07 01:02:08;;;;;;;40.57;37.17;;;;;;;;;;5034587;28;20466;-86
2021/06/07 01:04:34;;;;;;;41.27;37.70;;;;;;;;;;5035096;28;20419;-85
2021/06/07 01:07:02;;;;;;;41.50;37.83;;;;;;;;;;5034989;28;20437;-86
2021/06/07 01:09:28;;;;;;;40.43;36.57;;;;;;;;;;5034840;28;20482;-86
2021/06/07 01:11:55;;;;;;;40.07;36.90;;;;;;;;;;5035039;28;20416;-85
2021/06/07 01:14:24;;;;;;;40.30;36.90;;;;;;;;;;5034927;28;20443;-86
2021/06/07 01:16:50;;;;;;;38.40;35.40;;;;;;;;;;5034937;28;20474;-86
2021/06/07 01:19:18;;;;;;;40.93;37.33;;;;;;;;;;5033739;28;20414;-86
2021/06/07 01:21:45;;;;;;;40.37;37.00;;;;;;;;;;5034352;28;20485;-86
2021/06/07 01:24:13;;;;;;;39.67;36.27;;;;;;;;;;5034246;28;20453;-85
2021/06/07 01:26:41;;;;;;;38.80;35.83;;;;;;;;;;5034702;28;20464;-85
2021/06/07 01:29:07;;;;;;;40.37;37.00;;;;;;;;;;5034391;28;20447;-87
2021/06/07 01:31:34;;;;;;;41.40;38.10;;;;;;;;;;5034816;28;20431;-87
2021/06/07 01:34:01;;;;;;;40.97;37.57;;;;;;;;;;5034559;28;20433;-87
2021/06/07 01:36:28;;;;;;;40.27;37.10;;;;;;;;;;5034387;28;20435;-87
2021/06/07 01:38:55;;;;;;;40.60;37.03;;;;;;;;;;5034167;28;20436;-85
2021/06/07 01:41:24;;;;;;;41.77;38.37;;;;;;;;;;5034352;28;20473;-85
2021/06/07 01:43:51;;;;;;;39.77;36.53;;;;;;;;;;5034464;28;20824;-86
2021/06/07 01:46:18;;;;;;;42.57;39.13;;;;;;;;;;5034676;28;20452;-85
2021/06/07 01:48:45;;;;;;;40.27;36.80;;;;;;;;;;5034204;28;20798;-85
2021/06/07 01:51:12;;;;;;;41.37;37.90;;;;;;;;;;5033331;28;20426;-85
2021/06/07 01:53:40;;;;;;;39.90;36.27;;;;;;;;;;5034521;28;20490;-86
2021/06/07 01:56:07;;;;;;;40.67;37.33;;;;;;;;;;5034353;28;20963;-85
2021/06/07 01:58:36;;;;;;;42.37;38.90;;;;;;;;;;5034310;28;20435;-85
2021/06/07 02:01:05;;;;;;;41.60;38.10;;;;;;;;;;5034178;28;20462;-86
2021/06/07 02:03:33;;;;;;;39.90;36.63;;;;;;;;;;5034241;28;20468;-86
2021/06/07 02:06:00;;;;;;;41.90;38.40;;;;;;;;;;5033880;28;20423;-86
2021/06/07 02:08:30;;;;;;;41.17;37.67;;;;;;;;;;5034560;28;20418;-85
2021/06/07 02:10:58;;;;;;;40.30;37.20;;;;;;;;;;5038035;28;20470;-87
2021/06/07 02:13:25;;;;;;;39.87;36.57;;;;;;;;;;5038381;28;20446;-86
2021/06/07 02:15:58;;;;;;;40.73;37.13;;;;;;;;;;5037946;28;20466;-86
2021/06/07 02:18:25;;;;;;;39.00;35.80;;;;;;;;;;5037855;28;20415;-86
2021/06/07 02:20:52;;;;;;;39.23;35.83;;;;;;;;;;5036965;28;20428;-86
2021/06/07 02:23:19;;;;;;;39.53;36.20;;;;;;;;;;5037650;28;20447;-86
2021/06/07 02:25:45;;;;;;;41.10;37.63;;;;;;;;;;5038156;28;20451;-86
2021/06/07 02:28:13;;;;;;;41.93;38.20;;;;;;;;;;5038280;28;20912;-85
2021/06/07 02:30:40;;;;;;;41.97;38.20;;;;;;;;;;5038384;28;20881;-85
2021/06/07 02:33:08;;;;;;;39.43;35.97;;;;;;;;;;5037935;28;20795;-86
2021/06/07 02:35:35;;;;;;;42.10;38.60;;;;;;;;;;5037898;28;20810;-85
2021/06/07 02:38:02;;;;;;;40.07;36.90;;;;;;;;;;5037755;28;20462;-85
2021/06/07 02:40:30;;;;;;;42.57;38.83;;;;;;;;;;5037693;28;20479;-86
2021/06/07 02:42:57;;;;;;;40.53;37.23;;;;;;;;;;5037339;28;20458;-86
2021/06/07 02:45:25;;;;;;;39.57;36.13;;;;;;;;;;5037719;28;20850;-86
2021/06/07 02:47:54;;;;;;;41.37;37.70;;;;;;;;;;5038272;28;20453;-86
2021/06/07 02:50:24;;;;;;;40.63;37.27;;;;;;;;;;5037367;28;20449;-86
2021/06/07 02:52:51;;;;;;;39.87;36.67;;;;;;;;;;5037718;28;20429;-85
2021/06/07 02:55:18;;;;;;;39.67;36.47;;;;;;;;;;5037756;28;20455;-85
2021/06/07 02:57:46;;;;;;;40.17;37.07;;;;;;;;;;5037090;28;20410;-86
2021/06/07 03:00:14;;;;;;;39.03;35.80;;;;;;;;;;5037323;28;20443;-86
2021/06/07 03:02:41;;;;;;;38.90;35.63;;;;;;;;;;5037168;28;20489;-86
2021/06/07 03:05:08;;;;;;;38.13;35.20;;;;;;;;;;5037239;28;20463;-86
2021/06/07 03:07:37;;;;;;;39.20;36.00;;;;;;;;;;5037304;28;20444;-86
2021/06/07 03:10:05;;;;;;;41.30;37.60;;;;;;;;;;5035957;28;20473;-86
2021/06/07 03:12:31;;;;;;;37.17;34.33;;;;;;;;;;5037049;28;20426;-86
2021/06/07 03:14:58;;;;;;;38.20;34.93;;;;;;;;;;5036892;28;20432;-86
2021/06/07 03:17:25;;;;;;;38.37;35.27;;;;;;;;;;5037123;28;20461;-86
2021/06/07 03:19:52;;;;;;;36.00;33.30;;;;;;;;;;5036051;28;20437;-86
2021/06/07 03:22:21;;;;;;;38.20;35.20;;;;;;;;;;5037142;28;20811;-85
2021/06/07 03:24:50;;;;;;;41.20;37.40;;;;;;;;;;5036933;28;20440;-86
2021/06/07 03:27:17;;;;;;;37.10;34.17;;;;;;;;;;5036802;28;20451;-86
2021/06/07 03:29:44;;;;;;;37.77;34.77;;;;;;;;;;5036826;28;20902;-86
2021/06/07 03:32:11;;;;;;;37.70;34.67;;;;;;;;;;5036859;28;20415;-86
2021/06/07 03:34:38;;;;;;;36.97;33.77;;;;;;;;;;5036594;28;20490;-86
2021/06/07 03:37:05;;;;;;;40.07;36.47;;;;;;;;;;5036748;28;20422;-85
2021/06/07 03:39:32;;;;;;;37.80;34.80;;;;;;;;;;5036253;28;20482;-86
2021/06/07 03:42:00;;;;;;;38.40;35.20;;;;;;;;;;5036276;28;20495;-85
2021/06/07 03:44:27;;;;;;;39.13;35.93;;;;;;;;;;5036237;28;20495;-85
2021/06/07 03:46:54;;;;;;;36.50;33.70;;;;;;;;;;5036208;28;20515;-85
2021/06/07 03:49:21;;;;;;;38.93;35.37;;;;;;;;;;5036262;28;20445;-85
2021/06/07 03:51:48;;;;;;;38.30;35.13;;;;;;;;;;5036475;28;20980;-85
2021/06/07 03:54:15;;;;;;;37.90;34.67;;;;;;;;;;5035227;28;20830;-85
2021/06/07 03:56:42;;;;;;;37.90;35.10;;;;;;;;;;5035508;28;20443;-90
2021/06/07 03:59:11;;;;;;;39.60;35.60;;;;;;;;;;5036354;28;20527;-84
2021/06/07 04:01:39;;;;;;;40.33;36.80;;;;;;;;;;5035848;28;20533;-85
2021/06/07 04:04:05;;;;;;;40.67;37.17;;;;;;;;;;5036155;28;20485;-87
2021/06/07 04:06:32;;;;;;;37.70;34.30;;;;;;;;;;5035843;28;20410;-86
2021/06/07 04:09:02;;;;;;;41.60;38.00;;;;;;;;;;5036290;28;20441;-85
2021/06/07 04:11:29;;;;;;;39.40;35.93;;;;;;;;;;5036128;28;20415;-85
2021/06/07 04:13:56;;;;;;;40.43;36.93;;;;;;;;;;5035724;28;20418;-85
2021/06/07 04:16:24;;;;;;;40.27;36.93;;;;;;;;;;5035517;28;20441;-86
2021/06/07 04:18:51;;;;;;;40.60;36.90;;;;;;;;;;5035958;28;20432;-86
2021/06/07 04:21:18;;;;;;;42.23;38.50;;;;;;;;;;5035428;28;20474;-86
2021/06/07 04:23:45;;;;;;;42.40;38.60;;;;;;;;;;5035621;28;20446;-85
2021/06/07 04:26:12;;;;;;;43.10;39.03;;;;;;;;;;5035796;28;20428;-85
2021/06/07 04:28:39;;;;;;;41.43;37.93;;;;;;;;;;5034741;28;20418;-85
2021/06/07 04:31:06;;;;;;;41.87;38.43;;;;;;;;;;5035290;28;20444;-85
2021/06/07 04:33:35;;;;;;;40.93;37.37;;;;;;;;;;5034980;28;20449;-84
2021/06/07 04:36:01;;;;;;;44.60;40.57;;;;;;;;;;5035781;28;20455;-85
2021/06/07 04:38:28;;;;;;;43.33;39.40;;;;;;;;;;5035534;28;20444;-85
2021/06/07 04:40:55;;;;;;;42.07;38.77;;;;;;;;;;5035121;28;20966;-85
2021/06/07 04:43:22;;;;;;;43.63;39.60;;;;;;;;;;5035351;28;20436;-85
2021/06/07 04:45:49;;;;;;;43.00;39.40;;;;;;;;;;5034016;28;20420;-85
2021/06/07 04:48:16;;;;;;;42.00;38.10;;;;;;;;;;5035125;28;20449;-85
2021/06/07 04:50:45;;;;;;;43.87;39.93;;;;;;;;;;5034976;28;20507;-84
2021/06/07 04:53:13;;;;;;;43.40;39.70;;;;;;;;;;5035031;28;20424;-85
2021/06/07 04:55:41;;;;;;;43.10;39.33;;;;;;;;;;5035547;28;20862;-84
2021/06/07 04:58:09;;;;;;;43.77;39.77;;;;;;;;;;5034854;28;20528;-85
2021/06/07 05:00:36;;;;;;;41.90;38.37;;;;;;;;;;5033547;28;20460;-84
2021/06/07 05:03:03;;;;;;;43.77;39.77;;;;;;;;;;5034868;28;20495;-87
2021/06/07 05:05:30;;;;;;;44.33;40.27;;;;;;;;;;5034805;28;20479;-85
2021/06/07 05:07:59;;;;;;;43.47;39.87;;;;;;;;;;5034859;28;20440;-84
2021/06/07 05:10:26;;;;;;;44.50;40.70;;;;;;;;;;5034746;28;20500;-85
2021/06/07 05:12:53;;;;;;;43.70;40.10;;;;;;;;;;5033723;28;20425;-85
2021/06/07 05:15:20;;;;;;;43.47;39.77;;;;;;;;;;5034899;28;20945;-85
2021/06/07 05:17:47;;;;;;;42.80;39.20;;;;;;;;;;5034824;28;20410;-85
2021/06/07 05:20:15;;;;;;;41.13;37.33;;;;;;;;;;5034867;28;20433;-85
2021/06/07 05:22:42;;;;;;;41.90;38.20;;;;;;;;;;5034695;28;20497;-85
2021/06/07 05:25:12;;;;;;;40.53;37.20;;;;;;;;;;5034322;28;20920;-85
2021/06/07 05:27:39;;;;;;;41.67;38.07;;;;;;;;;;5034573;28;20420;-85
2021/06/07 05:30:06;;;;;;;41.27;37.63;;;;;;;;;;5034769;28;20466;-85
2021/06/07 05:32:34;;;;;;;40.53;36.63;;;;;;;;;;5034343;28;20403;-86
2021/06/07 05:35:01;;;;;;;43.50;39.20;;;;;;;;;;5033259;28;20538;-86
2021/06/07 05:37:28;;;;;;;41.00;37.40;;;;;;;;;;5034514;28;20405;-86
2021/06/07 05:39:55;;;;;;;40.27;36.70;;;;;;;;;;5034490;28;20940;-87
2021/06/07 05:42:24;;;;;;;40.47;37.10;;;;;;;;;;5034326;28;20477;-83
2021/06/07 05:44:51;;;;;;;41.93;38.23;;;;;;;;;;5033270;28;20461;-85
2021/06/07 05:47:19;;;;;;;40.50;37.00;;;;;;;;;;5034051;28;20939;-86
2021/06/07 05:49:45;;;;;;;40.30;36.93;;;;;;;;;;5034518;28;20515;-87
2021/06/07 05:52:12;;;;;;;40.43;37.03;;;;;;;;;;5034454;28;20443;-85
2021/06/07 05:54:40;;;;;;;41.10;37.60;;;;;;;;;;5034248;28;20451;-85
2021/06/07 05:57:08;;;;;;;39.80;36.70;;;;;;;;;;5034098;28;20808;-86
2021/06/07 05:59:36;;;;;;;38.20;34.87;;;;;;;;;;5033041;28;20419;-85
2021/06/07 06:02:04;;;;;;;37.53;34.43;;;;;;;;;;5034083;28;20487;-85
2021/06/07 06:04:31;;;;;;;38.03;34.60;;;;;;;;;;5033965;28;20453;-85
2021/06/07 06:06:58;;;;;;;39.03;35.40;;;;;;;;;;5034229;28;20445;-86
2021/06/07 06:09:25;;;;;;;40.60;37.20;;;;;;;;;;5033808;28;20482;-85
2021/06/07 06:11:51;;;;;;;39.97;36.47;;;;;;;;;;5034380;28;20845;-85
2021/06/07 06:14:18;;;;;;;39.67;35.97;;;;;;;;;;5034083;28;20477;-86
2021/06/07 06:16:47;;;;;;;40.03;36.70;;;;;;;;;;5016779;28;20456;-86
2021/06/07 06:19:14;;;;;;;40.00;36.70;;;;;;;;;;5034215;28;20518;-86
2021/06/07 06:21:41;;;;;;;40.73;37.10;;;;;;;;;;5034122;28;20476;-86
2021/06/07 06:24:09;;;;;;;36.97;33.90;;;;;;;;;;5034055;28;20419;-85
2021/06/07 06:26:35;;;;;;;37.93;34.73;;;;;;;;;;5034080;28;20448;-87
2021/06/07 06:29:02;;;;;;;37.47;34.17;;;;;;;;;;5033861;28;20448;-88
2021/06/07 06:31:29;;;;;;;39.67;36.50;;;;;;;;;;5033206;28;20455;-88
2021/06/07 06:33:58;;;;;;;39.60;36.40;;;;;;;;;;5034209;28;20448;-91
2021/06/07 06:36:25;;;;;;;40.67;37.13;;;;;;;;;;5034579;28;20421;-90
2021/06/07 06:38:52;;;;;;;38.43;35.60;;;;;;;;;;5034133;28;20441;-90
2021/06/07 06:41:18;;;;;;;38.63;35.67;;;;;;;;;;5034527;28;20473;-90
2021/06/07 06:43:45;;;;;;;37.27;34.10;;;;;;;;;;5034777;28;20931;-90
2021/06/07 06:46:12;;;;;;;37.43;34.30;;;;;;;;;;5034205;28;20403;-90
2021/06/07 06:48:39;;;;;;;36.17;33.60;;;;;;;;;;5034037;28;20433;-91
2021/06/07 06:51:08;;;;;;;38.10;34.90;;;;;;;;;;5034135;28;20406;-90
2021/06/07 06:53:35;;;;;;;35.97;33.27;;;;;;;;;;5033536;28;20424;-90
2021/06/07 06:56:02;;;;;;;36.23;33.40;;;;;;;;;;5036712;28;20440;-90
2021/06/07 06:58:29;;;;;;;34.87;32.10;;;;;;;;;;5037319;28;20414;-88
2021/06/07 07:00:56;;;;;;;34.70;31.90;;;;;;;;;;5037199;28;20419;-88
2021/06/07 07:03:23;;;;;;;34.47;31.90;;;;;;;;;;5037155;28;20476;-82
2021/06/07 07:05:51;;;;;;;34.97;32.13;;;;;;;;;;5037241;28;20482;-90
2021/06/07 07:08:21;;;;;;;34.27;31.70;;;;;;;;;;5036156;28;20455;-87
2021/06/07 07:10:48;;;;;;;33.53;31.03;;;;;;;;;;5036912;28;20470;-86
2021/06/07 07:13:15;;;;;;;34.03;31.63;;;;;;;;;;5037078;28;20923;-85
2021/06/07 07:15:42;;;;;;;32.97;30.67;;;;;;;;;;5037067;28;20809;-85
2021/06/07 07:18:10;;;;;;;33.70;31.20;;;;;;;;;;5037036;28;20451;-85
2021/06/07 07:20:37;;;;;;;36.83;33.73;;;;;;;;;;5036903;28;20422;-84
2021/06/07 07:23:05;;;;;;;32.00;29.80;;;;;;;;;;5036516;28;20458;-85
2021/06/07 07:25:33;;;;;;;32.63;30.30;;;;;;;;;;5019704;28;20412;-85
2021/06/07 07:28:01;;;;;;;33.00;30.47;;;;;;;;;;5036680;28;20412;-86
2021/06/07 07:30:30;;;;;;;35.50;32.90;;;;;;;;;;5036926;28;20439;-87
2021/06/07 07:32:57;;;;;;;33.80;31.23;;;;;;;;;;5036619;28;20519;-85
2021/06/07 07:35:24;;;;;;;34.40;31.90;;;;;;;;;;5036604;28;20417;-86
2021/06/07 07:37:51;;;;;;;33.73;31.17;;;;;;;;;;5035924;28;20445;-86
2021/06/07 07:40:19;;;;;;;33.40;30.83;;;;;;;;;;5036571;28;20488;-86
2021/06/07 07:42:49;;;;;;;33.80;31.37;;;;;;;;;;5036492;28;20485;-86
2021/06/07 07:45:17;;;;;;;33.10;30.77;;;;;;;;;;5036649;28;20799;-86
2021/06/07 07:47:44;;;;;;;32.53;30.27;;;;;;;;;;5036727;28;20873;-89
2021/06/07 07:50:12;;;;;;;32.60;30.00;;;;;;;;;;5037266;28;20420;-90
2021/06/07 07:52:41;;;;;;;32.13;30.03;;;;;;;;;;5036319;28;20438;-85
2021/06/07 07:55:09;;;;;;;32.30;29.70;;;;;;;;;;5036754;28;20499;-86
2021/06/07 07:57:36;;;;;;;33.63;31.33;;;;;;;;;;5035541;28;20442;-85
2021/06/07 08:00:06;;;;;;;32.50;30.20;;;;;;;;;;5036308;28;20457;-85
2021/06/07 08:02:33;;;;;;;32.97;30.57;;;;;;;;;;5036154;28;20563;-87
2021/06/07 08:05:00;;;;;;;31.50;29.30;;;;;;;;;;5036080;28;20466;-87
2021/06/07 08:07:27;;;;;;;31.03;28.93;;;;;;;;;;5035117;28;20433;-87
2021/06/07 08:09:53;;;;;;;32.87;30.50;;;;;;;;;;5035623;28;20500;-84
2021/06/07 08:12:21;;;;;;;32.27;29.77;;;;;;;;;;5036105;28;20491;-84
2021/06/07 08:14:48;;;;;;;31.17;29.07;;;;;;;;;;5035955;28;20446;-85
2021/06/07 08:17:16;;;;;;;31.03;28.83;;;;;;;;;;5035664;28;20533;-85
2021/06/07 08:19:44;;;;;;;31.97;29.57;;;;;;;;;;5034912;28;20420;-84
2021/06/07 08:22:11;;;;;;;31.17;29.07;;;;;;;;;;5035785;28;20481;-85
2021/06/07 08:24:38;;;;;;;33.60;31.20;;;;;;;;;;5035558;28;20440;-85
2021/06/07 08:27:05;;;;;;;29.43;27.50;;;;;;;;;;5035824;28;20856;-86
2021/06/07 08:29:33;;;;;;;32.70;30.40;;;;;;;;;;5034795;28;20784;-87
2021/06/07 08:32:00;;;;;;;29.97;27.80;;;;;;;;;;5035614;28;20500;-86
2021/06/07 08:34:28;;;;;;;31.50;29.40;;;;;;;;;;5035228;28;20453;-78
2021/06/07 08:36:55;;;;;;;30.43;28.13;;;;;;;;;;5035256;28;20937;-90
2021/06/07 08:39:22;;;;;;;30.50;28.33;;;;;;;;;;5034236;28;20441;-89
2021/06/07 08:41:50;;;;;;;29.57;27.57;;;;;;;;;;5035699;28;20552;-85
2021/06/07 08:44:18;;;;;;;28.60;26.50;;;;;;;;;;5035420;28;20477;-83
2021/06/07 08:46:46;;;;;;;28.67;26.87;;;;;;;;;;5035820;28;20412;-84
2021/06/07 08:49:13;;;;;;;29.47;27.47;;;;;;;;;;5035442;28;20446;-86
2021/06/07 08:51:42;;;;;;;28.90;27.00;;;;;;;;;;5035297;28;20437;-87
2021/06/07 08:54:09;;;;;;;28.77;27.07;;;;;;;;;;5034874;28;20456;-87
2021/06/07 08:56:36;;;;;;;28.63;26.80;;;;;;;;;;5035335;28;20408;-92
2021/06/07 08:59:03;;;;;;;30.70;28.20;;;;;;;;;;5034260;28;20451;-80
2021/06/07 09:01:30;;;;;;;28.77;26.87;;;;;;;;;;5034274;28;20933;-80
2021/06/07 09:04:08;;;;;;;29.40;27.40;;;;;;;;;;5034651;28;20415;-82
2021/06/07 09:06:39;;;;;;;31.07;28.80;;;;;;;;;;5034623;28;20453;-82
2021/06/07 09:09:08;;;;;;;28.57;26.67;;;;;;;;;;5034405;28;20446;-81
2021/06/07 09:11:42;;;;;;;29.73;27.43;;;;;;;;;;5034661;28;20438;-81
2021/06/07 09:14:16;;;;;;;31.07;28.97;;;;;;;;;;5034485;28;20437;-80
2021/06/07 09:16:43;;;;;;;30.23;28.03;;;;;;;;;;5033220;28;20458;-81
2021/06/07 09:19:17;;;;;;;29.53;27.53;;;;;;;;;;5033967;28;20941;-81
2021/06/07 09:21:45;;;;;;;30.33;28.00;;;;;;;;;;5034147;28;20420;-82
2021/06/07 09:24:14;;;;;;;29.63;27.60;;;;;;;;;;5033926;28;20447;-81
2021/06/07 09:26:43;;;;;;;29.37;27.27;;;;;;;;;;5034230;28;20447;-79
2021/06/07 09:29:13;;;;;;;29.97;27.53;;;;;;;;;;5033856;28;20499;-81
2021/06/07 09:31:41;;;;;;;27.73;25.73;;;;;;;;;;5034268;28;20802;-80
2021/06/07 09:34:09;;;;;;;29.10;27.20;;;;;;;;;;5033683;28;20828;-81
2021/06/07 09:36:36;;;;;;;26.97;25.23;;;;;;;;;;5034266;28;20470;-81
2021/06/07 09:39:11;;;;;;;27.53;25.70;;;;;;;;;;5033882;28;20443;-81
2021/06/07 09:41:56;;;;;;;30.03;28.03;;;;;;;;;;5033663;28;20479;-83
2021/06/07 09:44:28;;;;;;;29.30;27.40;;;;;;;;;;5034106;28;20417;-83
2021/06/07 09:47:07;;;;;;;28.17;25.80;;;;;;;;;;5034188;28;20442;-85
2021/06/07 09:49:38;;;;;;;29.67;27.67;;;;;;;;;;5033693;28;20442;-84
2021/06/07 09:52:09;;;;;;;29.60;27.70;;;;;;;;;;5034078;28;20496;-81
2021/06/07 09:54:36;;;;;;;29.63;27.60;;;;;;;;;;5033991;28;20438;-80
2021/06/07 09:57:04;;;;;;;31.07;28.80;;;;;;;;;;5033706;28;20458;-81
2021/06/07 09:59:32;;;;;;;31.73;29.23;;;;;;;;;;5033935;28;20413;-81
2021/06/07 10:02:00;;;;;;;31.20;28.90;;;;;;;;;;5034255;28;20486;-80
2021/06/07 10:04:45;;;;;;;31.20;29.10;;;;;;;;;;5033864;28;20805;-83
2021/06/07 10:07:12;;;;;;;31.53;29.33;;;;;;;;;;5034525;28;20839;-83
2021/06/07 10:09:39;;;;;;;31.40;28.87;;;;;;;;;;5032426;28;20481;-81
2021/06/07 10:12:24;;;;;;;30.40;28.20;;;;;;;;;;5033363;28;20435;-82
2021/06/07 10:14:51;;;;;;;31.73;29.47;;;;;;;;;;5033693;28;20439;-82
2021/06/07 10:17:17;;;;;;;32.00;29.50;;;;;;;;;;5033760;28;20532;-81
2021/06/07 10:19:48;;;;;;;31.97;29.63;;;;;;;;;;5033834;28;20435;-83
2021/06/07 10:22:16;;;;;;;31.80;29.60;;;;;;;;;;5033927;28;20478;-82
2021/06/07 10:24:43;;;;;;;31.90;29.70;;;;;;;;;;5033577;28;21042;-82
2021/06/07 10:27:18;;;;;;;32.33;29.93;;;;;;;;;;5033524;28;20553;-81
2021/06/07 10:29:47;;;;;;;31.00;28.90;;;;;;;;;;5034513;28;20468;-80
2021/06/07 10:32:17;;;;;;;30.57;28.43;;;;;;;;;;5037084;28;20451;-81
2021/06/07 10:34:47;;;;;;;30.37;28.17;;;;;;;;;;5037635;28;20410;-81
2021/06/07 10:37:15;;;;;;;29.57;27.37;;;;;;;;;;5037084;28;20450;-81
2021/06/07 10:39:42;;;;;;;29.27;27.27;;;;;;;;;;5037554;28;20424;-80
2021/06/07 10:42:17;;;;;;;30.30;28.30;;;;;;;;;;5037206;28;20497;-80
2021/06/07 10:44:45;;;;;;;29.73;27.73;;;;;;;;;;5037221;28;20432;-79
2021/06/07 10:47:13;;;;;;;29.60;27.60;;;;;;;;;;5037141;28;20470;-81
2021/06/07 10:49:41;;;;;;;30.07;27.70;;;;;;;;;;5037111;28;20423;-83
2021/06/07 10:52:09;;;;;;;31.97;29.57;;;;;;;;;;5037240;28;20453;-82
2021/06/07 10:54:37;;;;;;;30.30;28.13;;;;;;;;;;5037102;28;20442;-82
2021/06/07 10:57:22;;;;;;;32.17;29.80;;;;;;;;;;5036572;28;20428;-81
2021/06/07 10:59:51;;;;;;;30.87;28.77;;;;;;;;;;5036384;28;20433;-78
2021/06/07 11:02:18;;;;;;;32.30;29.77;;;;;;;;;;5036400;28;20449;-80
2021/06/07 11:04:45;;;;;;;31.30;29.03;;;;;;;;;;5036873;28;20439;-81
2021/06/07 11:07:13;;;;;;;31.60;29.50;;;;;;;;;;5036833;28;20420;-80
2021/06/07 11:09:55;;;;;;;30.47;28.33;;;;;;;;;;5036441;28;20833;-81
2021/06/07 11:12:33;;;;;;;33.10;30.60;;;;;;;;;;5036220;28;20485;-80
2021/06/07 11:15:10;;;;;;;33.07;30.30;;;;;;;;;;5036583;28;20439;-80
2021/06/07 11:17:37;;;;;;;32.00;29.63;;;;;;;;;;5036420;28;20430;-81
2021/06/07 11:20:05;;;;;;;30.80;28.60;;;;;;;;;;5036340;28;20937;-80
2021/06/07 11:23:03;;;;;;;30.40;28.30;;;;;;;;;;5036206;28;20490;-80
2021/06/07 11:25:29;;;;;;;32.00;29.53;;;;;;;;;;5036718;28;20438;-81
2021/06/07 11:27:56;;;;;;;31.93;29.70;;;;;;;;;;5037063;28;20467;-81
2021/06/07 11:30:25;;;;;;;30.07;28.17;;;;;;;;;;5036072;28;20427;-80
2021/06/07 11:32:52;;;;;;;30.33;28.43;;;;;;;;;;5036067;28;20803;-81
2021/06/07 11:35:37;;;;;;;29.50;27.40;;;;;;;;;;5036006;28;20438;-80
2021/06/07 11:38:19;;;;;;;30.67;28.60;;;;;;;;;;5036347;28;20430;-80
2021/06/07 11:40:46;;;;;;;30.97;28.67;;;;;;;;;;5035699;28;21007;-80
2021/06/07 11:43:13;;;;;;;32.43;29.90;;;;;;;;;;5035881;28;20489;-80
2021/06/07 11:45:42;;;;;;;33.27;30.87;;;;;;;;;;5035994;28;20941;-80
2021/06/07 11:48:09;;;;;;;32.13;29.93;;;;;;;;;;5034842;28;20451;-80
2021/06/07 11:50:40;;;;;;;31.37;29.10;;;;;;;;;;5035853;28;20450;-83
2021/06/07 11:53:14;;;;;;;31.20;29.10;;;;;;;;;;5034965;28;20768;-83
2021/06/07 11:55:41;;;;;;;31.27;29.10;;;;;;;;;;5036895;28;20443;-82
2021/06/07 11:58:15;;;;;;;32.30;30.10;;;;;;;;;;5036096;28;20435;-83
2021/06/07 12:00:45;;;;;;;29.63;27.70;;;;;;;;;;5036190;28;20516;-80
2021/06/07 12:03:12;;;;;;;31.23;28.93;;;;;;;;;;5035720;28;20497;-81
2021/06/07 12:05:39;;;;;;;30.90;28.63;;;;;;;;;;5035400;28;20437;-81
2021/06/07 12:08:07;;;;;;;30.50;28.50;;;;;;;;;;5033807;28;20433;-80
2021/06/07 12:10:34;;;;;;;31.20;28.90;;;;;;;;;;5035234;28;20493;-80
2021/06/07 12:13:17;;;;;;;32.70;30.20;;;;;;;;;;5035285;28;20425;-80
2021/06/07 12:15:50;;;;;;;31.73;29.43;;;;;;;;;;5035310;28;20435;-80
2021/06/07 12:18:28;;;;;;;30.70;28.53;;;;;;;;;;5035514;28;20449;-81
2021/06/07 12:20:58;;;;;;;30.53;28.43;;;;;;;;;;5035426;28;20449;-81
2021/06/07 12:23:28;;;;;;;29.50;27.70;;;;;;;;;;5035748;28;20498;-81
2021/06/07 12:28:36;;;;;;;31.03;29.10;;;;;;;;;;5035175;28;20438;-81
2021/06/07 12:31:04;;;;;;;30.03;27.83;;;;;;;;;;5035176;28;20450;-81
2021/06/07 12:33:32;;;;;;;29.83;27.67;;;;;;;;;;5035620;28;20443;-81
2021/06/07 12:36:00;;;;;;;28.20;26.40;;;;;;;;;;5035252;28;20435;-81
2021/06/07 12:38:27;;;;;;;28.80;26.90;;;;;;;;;;5035294;28;20435;-82
2021/06/07 12:40:56;;;;;;;30.60;28.30;;;;;;;;;;5034897;28;20980;-81
2021/06/07 12:43:25;;;;;;;28.30;26.50;;;;;;;;;;5034766;28;20458;-81
2021/06/07 12:45:56;;;;;;;29.83;27.60;;;;;;;;;;5034994;28;20421;-82
2021/06/07 12:48:25;;;;;;;30.50;28.37;;;;;;;;;;5034602;28;20840;-81
2021/06/07 12:50:53;;;;;;;28.37;26.47;;;;;;;;;;5035292;28;20422;-81
2021/06/07 12:53:21;;;;;;;27.70;25.77;;;;;;;;;;5034636;28;20517;-82
2021/06/07 12:55:48;;;;;;;27.87;26.10;;;;;;;;;;5033608;28;20450;-80
2021/06/07 12:58:16;;;;;;;28.30;26.50;;;;;;;;;;5034912;28;20443;-81
2021/06/07 13:00:47;;;;;;;28.20;26.33;;;;;;;;;;5034674;28;20431;-82
2021/06/07 13:03:19;;;;;;;27.50;25.70;;;;;;;;;;5034341;28;20510;-81
2021/06/07 13:05:48;;;;;;;26.70;24.80;;;;;;;;;;5034726;28;20450;-81
2021/06/07 13:08:16;;;;;;;27.53;25.30;;;;;;;;;;5035274;28;20493;-81
2021/06/07 13:10:45;;;;;;;29.30;27.00;;;;;;;;;;5034403;28;20510;-82
2021/06/07 13:13:20;;;;;;;28.10;26.20;;;;;;;;;;5035116;28;20489;-82
2021/06/07 13:15:55;;;;;;;29.20;27.30;;;;;;;;;;5034550;28;20413;-82
2021/06/07 13:18:22;;;;;;;28.00;25.90;;;;;;;;;;5033522;28;20443;-81
2021/06/07 13:21:00;;;;;;;28.10;26.10;;;;;;;;;;5034659;28;20435;-81
2021/06/07 13:23:34;;;;;;;28.00;26.20;;;;;;;;;;5033908;28;20497;-83
2021/06/07 13:26:16;;;;;;;27.93;26.10;;;;;;;;;;5032993;28;20443;-83
2021/06/07 13:28:43;;;;;;;27.93;26.20;;;;;;;;;;5034645;28;20533;-83
2021/06/07 13:31:10;;;;;;;27.10;25.37;;;;;;;;;;5034346;28;20431;-82
2021/06/07 13:33:39;;;;;;;27.70;25.70;;;;;;;;;;5032684;28;20463;-82
2021/06/07 13:36:09;;;;;;;28.70;26.90;;;;;;;;;;5034378;28;20419;-81
2021/06/07 13:38:37;;;;;;;27.30;25.60;;;;;;;;;;5034371;28;20442;-81
2021/06/07 13:41:08;;;;;;;26.27;24.60;;;;;;;;;;5032881;28;20881;-81
2021/06/07 13:43:35;;;;;;;27.50;25.70;;;;;;;;;;5033721;28;20461;-82
2021/06/07 13:46:02;;;;;;;27.30;25.20;;;;;;;;;;5033003;28;20448;-82
2021/06/07 13:48:34;;;;;;;28.70;26.80;;;;;;;;;;5034104;28;20420;-81
2021/06/07 13:51:01;;;;;;;29.47;27.27;;;;;;;;;;5034047;28;20497;-82
2021/06/07 13:53:33;;;;;;;27.87;26.13;;;;;;;;;;5033832;28;20426;-83
2021/06/07 13:56:01;;;;;;;29.23;27.03;;;;;;;;;;5034132;28;20511;-82
2021/06/07 13:58:37;;;;;;;29.10;27.30;;;;;;;;;;5033757;28;20460;-82
2021/06/07 14:01:05;;;;;;;27.00;25.27;;;;;;;;;;5033757;28;20902;-82
2021/06/07 14:03:32;;;;;;;28.87;27.10;;;;;;;;;;5033530;28;20457;-82
2021/06/07 14:06:01;;;;;;;28.47;26.67;;;;;;;;;;5036998;28;20441;-82
2021/06/07 14:08:28;;;;;;;28.70;26.97;;;;;;;;;;5037845;28;20420;-82
2021/06/07 14:10:58;;;;;;;28.60;26.77;;;;;;;;;;5037647;28;20473;-81
2021/06/07 14:13:25;;;;;;;29.73;27.93;;;;;;;;;;5037769;28;20529;-82
2021/06/07 14:15:52;;;;;;;31.37;29.17;;;;;;;;;;5037798;28;20429;-82
2021/06/07 14:18:19;;;;;;;29.03;27.23;;;;;;;;;;5037974;28;20447;-82
2021/06/07 14:20:47;;;;;;;28.83;26.90;;;;;;;;;;5037657;28;20425;-82
2021/06/07 14:26:04;;;;;;;30.20;28.17;;;;;;;;;;5037328;28;20393;-83
2021/06/07 14:28:31;;;;;;;27.40;25.70;;;;;;;;;;5037967;28;20793;-83